createdAt,value
2022-07-31T00:00:28.936Z,90.97
2022-07-31T00:02:55.762Z,90.61
2022-07-31T00:05:23.470Z,90.86
2022-07-31T00:07:50.260Z,91.94
2022-07-31T00:10:17.040Z,92.83
2022-07-31T00:12:43.540Z,94.17
2022-07-31T00:15:11.214Z,96.41
2022-07-31T00:17:39.353Z,97.21
2022-07-31T00:20:06.921Z,97.50
2022-07-31T00:22:33.376Z,98.21
2022-07-31T00:24:59.807Z,98.57
2022-07-31T00:27:26.292Z,99.64
2022-07-31T00:29:52.747Z,100.00
2022-07-31T00:32:19.279Z,100.00
2022-07-31T00:34:45.737Z,100.00
2022-07-31T00:37:12.200Z,100.00
2022-07-31T00:39:38.664Z,100.00
2022-07-31T00:42:05.829Z,100.00
2022-07-31T00:44:32.318Z,100.00
2022-07-31T00:46:58.855Z,100.00
2022-07-31T00:49:27.434Z,100.00
2022-07-31T00:52:04.496Z,100.00
2022-07-31T00:54:31.051Z,100.00
2022-07-31T00:56:57.518Z,100.00
2022-07-31T00:59:24.939Z,100.00
2022-07-31T01:01:51.749Z,100.00
2022-07-31T01:04:19.151Z,100.00
2022-07-31T01:06:46.976Z,100.00
2022-07-31T01:09:16.728Z,100.00
2022-07-31T01:12:01.485Z,100.00
2022-07-31T01:14:33.845Z,100.00
2022-07-31T01:17:02.168Z,100.00
2022-07-31T01:19:43.685Z,100.00
2022-07-31T01:22:41.070Z,100.00
2022-07-31T01:25:29.312Z,100.00
2022-07-31T01:28:33.980Z,100.00
2022-07-31T01:31:25.461Z,100.00
2022-07-31T01:34:02.596Z,100.00
2022-07-31T01:36:34.627Z,100.00
2022-07-31T01:39:02.417Z,100.00
2022-07-31T01:41:34.409Z,100.00
2022-07-31T01:44:03.339Z,100.00
2022-07-31T01:46:37.306Z,100.00
2022-07-31T01:49:09.708Z,100.00
2022-07-31T01:51:39.045Z,100.00
2022-07-31T01:54:06.182Z,100.00
2022-07-31T01:56:34.617Z,100.00
2022-07-31T01:59:02.308Z,100.00
2022-07-31T02:01:30.195Z,100.00
2022-07-31T02:04:00.654Z,100.00
2022-07-31T02:06:28.321Z,100.00
2022-07-31T02:08:56.325Z,100.00
2022-07-31T02:11:23.797Z,100.00
2022-07-31T02:13:53.375Z,100.00
2022-07-31T02:16:21.238Z,100.00
2022-07-31T02:18:51.117Z,100.00
2022-07-31T02:21:17.727Z,100.00
2022-07-31T02:23:44.316Z,100.00
2022-07-31T02:26:11.824Z,100.00
2022-07-31T02:28:41.927Z,100.00
2022-07-31T02:31:11.836Z,100.00
2022-07-31T02:33:41.737Z,100.00
2022-07-31T02:36:09.581Z,100.00
2022-07-31T02:38:37.349Z,100.00
2022-07-31T02:41:05.006Z,100.00
2022-07-31T02:43:33.268Z,100.00
2022-07-31T02:46:00.546Z,100.00
2022-07-31T02:48:27.442Z,100.00
2022-07-31T02:50:54.619Z,100.00
2022-07-31T02:53:21.765Z,100.00
2022-07-31T02:55:49.498Z,100.00
2022-07-31T02:58:16.138Z,100.00
2022-07-31T03:00:42.846Z,100.00
2022-07-31T03:03:09.370Z,100.00
2022-07-31T03:05:35.828Z,100.00
2022-07-31T03:08:02.320Z,100.00
2022-07-31T03:10:28.788Z,100.00
2022-07-31T03:12:56.016Z,100.00
2022-07-31T03:15:25.530Z,100.00
2022-07-31T03:17:53.639Z,100.00
2022-07-31T03:20:21.149Z,100.00
2022-07-31T03:22:48.873Z,100.00
2022-07-31T03:25:21.476Z,100.00
2022-07-31T03:27:55.621Z,100.00
2022-07-31T03:30:26.855Z,100.00
2022-07-31T03:32:57.031Z,100.00
2022-07-31T03:35:24.833Z,100.00
2022-07-31T03:37:51.855Z,100.00
2022-07-31T03:40:18.367Z,100.00
2022-07-31T03:42:46.117Z,100.00
2022-07-31T03:45:13.530Z,100.00
2022-07-31T03:47:40.320Z,100.00
2022-07-31T03:50:08.053Z,100.00
2022-07-31T03:52:35.468Z,100.00
2022-07-31T03:55:02.214Z,100.00
2022-07-31T03:57:31.296Z,100.00
2022-07-31T04:00:00.745Z,100.00
2022-07-31T04:02:28.390Z,100.00
2022-07-31T04:04:55.544Z,100.00
2022-07-31T04:07:22.029Z,100.00
2022-07-31T04:09:48.876Z,100.00
2022-07-31T04:12:15.814Z,100.00
2022-07-31T04:14:42.471Z,100.00
2022-07-31T04:17:09.337Z,100.00
2022-07-31T04:19:36.150Z,100.00
2022-07-31T04:22:03.095Z,100.00
2022-07-31T04:24:29.821Z,100.00
2022-07-31T04:26:56.969Z,100.00
2022-07-31T04:29:24.431Z,100.00
2022-07-31T04:31:50.973Z,100.00
2022-07-31T04:34:17.464Z,100.00
2022-07-31T04:36:43.946Z,100.00
2022-07-31T04:39:10.522Z,100.00
2022-07-31T04:41:37.020Z,100.00
2022-07-31T04:44:03.615Z,100.00
2022-07-31T04:46:30.098Z,100.00
2022-07-31T04:48:56.784Z,100.00
2022-07-31T04:51:24.303Z,100.00
2022-07-31T04:53:51.420Z,100.00
2022-07-31T04:56:37.355Z,100.00
2022-07-31T04:59:07.223Z,100.00
2022-07-31T05:01:34.207Z,100.00
2022-07-31T05:04:01.101Z,100.00
2022-07-31T05:06:45.081Z,100.00
2022-07-31T05:09:18.767Z,100.00
2022-07-31T05:11:47.203Z,100.00
2022-07-31T05:14:16.603Z,100.00
2022-07-31T05:16:44.077Z,100.00
2022-07-31T05:19:14.582Z,100.00
2022-07-31T05:21:53.011Z,100.00
2022-07-31T05:24:22.532Z,100.00
2022-07-31T05:26:59.209Z,100.00
2022-07-31T05:29:25.858Z,100.00
2022-07-31T05:31:59.950Z,100.00
2022-07-31T05:34:30.145Z,100.00
2022-07-31T05:36:58.586Z,100.00
2022-07-31T05:39:25.265Z,100.00
2022-07-31T05:41:52.755Z,100.00
2022-07-31T05:44:19.398Z,100.00
2022-07-31T05:46:45.882Z,100.00
2022-07-31T05:49:12.646Z,100.00
2022-07-31T05:51:42.397Z,100.00
2022-07-31T05:54:08.858Z,100.00
2022-07-31T05:56:35.404Z,100.00
2022-07-31T05:59:01.832Z,100.00
2022-07-31T06:01:28.437Z,100.00
2022-07-31T06:03:55.009Z,100.00
2022-07-31T06:06:21.445Z,100.00
2022-07-31T06:08:47.982Z,100.00
2022-07-31T06:11:14.454Z,100.00
2022-07-31T06:13:43.249Z,100.00
2022-07-31T06:16:13.949Z,100.00
2022-07-31T06:18:40.857Z,99.71
2022-07-31T06:21:07.351Z,100.00
2022-07-31T06:23:33.946Z,99.73
2022-07-31T06:26:00.814Z,99.74
2022-07-31T06:28:47.552Z,99.79
2022-07-31T06:31:19.345Z,98.45
2022-07-31T06:33:48.008Z,99.29
2022-07-31T06:36:14.814Z,100.00
2022-07-31T06:38:41.324Z,100.00
2022-07-31T06:41:07.850Z,100.00
2022-07-31T06:43:34.314Z,97.38
2022-07-31T06:46:00.760Z,96.86
2022-07-31T06:48:27.257Z,96.31
2022-07-31T06:51:14.561Z,95.50
2022-07-31T06:53:41.421Z,94.73
2022-07-31T06:56:07.877Z,94.70
2022-07-31T06:58:34.346Z,94.86
2022-07-31T07:01:00.817Z,93.42
2022-07-31T07:03:27.281Z,94.22
2022-07-31T07:05:53.746Z,94.19
2022-07-31T07:08:20.261Z,94.57
2022-07-31T07:10:46.762Z,93.50
2022-07-31T07:13:13.242Z,93.37
2022-07-31T07:15:39.723Z,93.49
2022-07-31T07:18:06.898Z,93.69
2022-07-31T07:20:33.839Z,91.90
2022-07-31T07:23:00.279Z,92.11
2022-07-31T07:25:26.758Z,91.32
2022-07-31T07:27:53.767Z,90.60
2022-07-31T07:30:20.361Z,91.37
2022-07-31T07:32:46.851Z,90.57
2022-07-31T07:35:13.651Z,89.31
2022-07-31T07:37:41.379Z,89.68
2022-07-31T07:40:09.049Z,89.26
2022-07-31T07:42:35.528Z,87.60
2022-07-31T07:45:02.242Z,85.83
2022-07-31T07:47:54.158Z,86.72
2022-07-31T07:50:20.275Z,84.32
2022-07-31T07:52:47.413Z,83.24
2022-07-31T07:55:13.937Z,84.45
2022-07-31T07:57:43.501Z,84.79
2022-07-31T08:00:11.487Z,82.63
2022-07-31T08:02:38.420Z,82.35
2022-07-31T08:05:06.937Z,82.75
2022-07-31T08:07:42.167Z,81.77
2022-07-31T08:10:10.104Z,83.36
2022-07-31T08:12:36.765Z,82.91
2022-07-31T08:15:04.410Z,82.31
2022-07-31T08:17:31.070Z,81.71
2022-07-31T08:19:57.679Z,82.02
2022-07-31T08:22:24.177Z,81.89
2022-07-31T08:24:50.637Z,80.54
2022-07-31T08:27:39.256Z,79.02
2022-07-31T08:30:07.875Z,79.36
2022-07-31T08:32:34.449Z,79.28
2022-07-31T08:35:00.943Z,78.25
2022-07-31T08:37:59.319Z,78.34
2022-07-31T08:40:14.005Z,78.56
2022-07-31T08:42:40.562Z,78.12
2022-07-31T08:45:08.326Z,77.64
2022-07-31T08:47:36.075Z,76.67
2022-07-31T08:50:05.528Z,74.51
2022-07-31T08:52:34.638Z,76.00
2022-07-31T08:55:06.674Z,75.19
2022-07-31T08:57:33.650Z,74.79
2022-07-31T09:00:00.115Z,75.67
2022-07-31T09:02:26.633Z,73.21
2022-07-31T09:04:53.188Z,73.90
2022-07-31T09:07:19.707Z,73.92
2022-07-31T09:09:51.472Z,72.14
2022-07-31T09:12:34.400Z,72.82
2022-07-31T09:15:01.417Z,71.56
2022-07-31T09:17:35.827Z,70.98
2022-07-31T09:20:04.155Z,71.35
2022-07-31T09:22:31.258Z,72.00
2022-07-31T09:25:11.868Z,68.64
2022-07-31T09:27:38.844Z,69.90
2022-07-31T09:30:06.254Z,69.34
2022-07-31T09:32:32.712Z,65.93
2022-07-31T09:35:13.136Z,64.18
2022-07-31T09:37:40.180Z,63.16
2022-07-31T09:40:08.228Z,65.85
2022-07-31T09:42:55.457Z,65.41
2022-07-31T09:45:23.686Z,66.00
2022-07-31T09:48:15.134Z,64.72
2022-07-31T09:50:59.796Z,64.30
2022-07-31T09:53:27.092Z,66.21
2022-07-31T09:55:56.085Z,68.23
2022-07-31T09:58:23.725Z,67.64
2022-07-31T10:00:52.619Z,65.55
2022-07-31T10:03:20.260Z,66.62
2022-07-31T10:05:47.913Z,65.81
2022-07-31T10:08:17.253Z,68.27
2022-07-31T10:10:45.090Z,64.74
2022-07-31T10:13:15.491Z,64.48
2022-07-31T10:15:42.650Z,63.89
2022-07-31T10:18:09.940Z,64.12
2022-07-31T10:20:37.691Z,63.41
2022-07-31T10:23:14.357Z,62.51
2022-07-31T10:25:53.263Z,60.91
2022-07-31T10:28:21.904Z,62.37
2022-07-31T10:30:49.292Z,62.05
2022-07-31T10:33:41.912Z,61.66
2022-07-31T10:36:11.266Z,59.44
2022-07-31T10:38:47.815Z,57.80
2022-07-31T10:41:41.982Z,58.65
2022-07-31T10:44:13.580Z,56.53
2022-07-31T10:46:40.195Z,56.45
2022-07-31T10:49:08.729Z,54.87
2022-07-31T10:51:46.457Z,56.41
2022-07-31T10:54:14.197Z,58.06
2022-07-31T10:56:45.205Z,56.39
2022-07-31T10:59:12.234Z,59.01
2022-07-31T11:01:55.035Z,56.97
2022-07-31T11:04:31.869Z,57.76
2022-07-31T11:06:59.122Z,59.41
2022-07-31T11:09:27.937Z,60.67
2022-07-31T11:11:55.450Z,61.38
2022-07-31T11:14:32.893Z,60.99
2022-07-31T11:16:59.493Z,58.36
2022-07-31T11:19:36.577Z,60.04
2022-07-31T11:22:32.224Z,57.70
2022-07-31T11:25:00.692Z,57.34
2022-07-31T11:27:34.141Z,55.12
2022-07-31T11:30:13.142Z,55.22
2022-07-31T11:32:41.007Z,52.46
2022-07-31T11:35:08.218Z,52.42
2022-07-31T11:37:46.222Z,53.24
2022-07-31T11:40:22.482Z,53.77
2022-07-31T11:43:23.229Z,53.12
2022-07-31T11:45:52.755Z,50.67
2022-07-31T11:48:21.171Z,51.83
2022-07-31T11:50:49.753Z,53.99
2022-07-31T11:53:17.620Z,52.55
2022-07-31T11:55:55.834Z,48.10
2022-07-31T11:58:24.280Z,50.53
2022-07-31T12:00:52.105Z,50.68
2022-07-31T12:03:21.193Z,48.53
2022-07-31T12:05:50.386Z,48.90
2022-07-31T12:08:17.013Z,49.50
2022-07-31T12:10:43.956Z,51.46
2022-07-31T12:13:15.759Z,49.97
2022-07-31T12:16:00.698Z,50.04
2022-07-31T12:18:29.183Z,49.15
2022-07-31T12:20:59.815Z,47.76
2022-07-31T12:23:40.619Z,48.18
2022-07-31T12:26:10.635Z,47.73
2022-07-31T12:28:37.633Z,45.51
2022-07-31T12:31:04.582Z,45.96
2022-07-31T12:33:40.549Z,46.14
2022-07-31T12:36:18.602Z,44.74
2022-07-31T12:38:48.888Z,46.40
2022-07-31T12:41:16.288Z,45.00
2022-07-31T12:43:51.859Z,44.98
2022-07-31T12:46:36.295Z,45.28
2022-07-31T12:49:04.444Z,45.73
2022-07-31T12:51:45.181Z,45.15
2022-07-31T12:54:14.880Z,47.20
2022-07-31T12:56:42.308Z,44.84
2022-07-31T12:59:09.647Z,44.88
2022-07-31T13:01:36.853Z,44.22
2022-07-31T13:04:05.583Z,44.87
2022-07-31T13:06:34.863Z,43.75
2022-07-31T13:09:01.398Z,43.87
2022-07-31T13:11:46.427Z,42.15
2022-07-31T13:14:19.591Z,39.88
2022-07-31T13:16:47.321Z,39.83
2022-07-31T13:19:15.011Z,40.03
2022-07-31T13:21:49.274Z,40.94
2022-07-31T13:24:20.611Z,39.40
2022-07-31T13:26:48.397Z,37.88
2022-07-31T13:29:15.773Z,37.72
2022-07-31T13:47:15.202Z,36.34
2022-07-31T13:49:41.847Z,36.76
2022-07-31T13:52:08.556Z,36.35
2022-07-31T13:54:35.079Z,36.94
2022-07-31T13:57:01.671Z,37.86
2022-07-31T13:59:29.271Z,38.37
2022-07-31T14:02:13.503Z,37.35
2022-07-31T14:04:40.459Z,36.65
2022-07-31T14:07:08.150Z,36.54
2022-07-31T14:09:35.899Z,36.98
2022-07-31T14:12:03.633Z,35.44
2022-07-31T14:14:30.913Z,35.32
2022-07-31T14:16:57.456Z,34.90
2022-07-31T14:19:23.938Z,34.36
2022-07-31T14:21:56.909Z,34.09
2022-07-31T14:24:24.888Z,33.43
2022-07-31T14:26:51.627Z,33.47
2022-07-31T14:29:18.160Z,33.44
2022-07-31T14:31:44.622Z,33.30
2022-07-31T14:34:11.144Z,32.59
2022-07-31T14:36:37.828Z,33.23
2022-07-31T14:39:04.363Z,32.69
2022-07-31T14:41:30.875Z,32.19
2022-07-31T14:43:57.468Z,32.48
2022-07-31T14:46:23.970Z,31.86
2022-07-31T14:48:50.649Z,31.06
2022-07-31T14:51:18.581Z,31.62
2022-07-31T14:53:46.163Z,30.56
2022-07-31T14:56:12.777Z,30.85
2022-07-31T14:58:58.083Z,30.51
2022-07-31T15:01:30.769Z,31.28
2022-07-31T15:03:57.866Z,30.27
2022-07-31T15:06:40.035Z,31.04
2022-07-31T15:09:12.127Z,30.21
2022-07-31T15:12:00.038Z,30.80
2022-07-31T15:14:28.505Z,32.03
2022-07-31T15:16:54.959Z,31.29
2022-07-31T15:19:21.472Z,30.22
2022-07-31T15:22:11.242Z,31.52
2022-07-31T15:24:34.496Z,31.59
2022-07-31T15:27:01.022Z,31.38
2022-07-31T15:30:05.765Z,31.54
2022-07-31T15:32:14.097Z,31.28
2022-07-31T15:34:40.601Z,31.33
2022-07-31T15:37:07.661Z,31.36
2022-07-31T15:39:34.447Z,30.65
2022-07-31T15:42:01.988Z,32.68
2022-07-31T15:44:29.009Z,31.65
2022-07-31T15:46:55.670Z,31.18
2022-07-31T15:49:23.250Z,30.52
2022-07-31T15:51:49.781Z,29.66
2022-07-31T15:54:16.370Z,30.57
2022-07-31T15:56:42.938Z,30.11
2022-07-31T15:59:09.421Z,29.28
2022-07-31T16:01:37.573Z,29.38
2022-07-31T16:04:16.329Z,29.83
2022-07-31T16:06:49.084Z,29.61
2022-07-31T16:09:17.144Z,30.46
2022-07-31T16:12:03.509Z,29.63
2022-07-31T16:14:30.217Z,30.46
2022-07-31T16:16:57.516Z,30.49
2022-07-31T16:19:25.130Z,30.60
2022-07-31T16:21:53.057Z,30.83
2022-07-31T16:24:22.322Z,30.73
2022-07-31T16:26:49.794Z,30.50
2022-07-31T16:29:17.749Z,29.68
2022-07-31T16:32:04.331Z,30.12
2022-07-31T16:34:30.927Z,31.19
2022-07-31T16:36:57.562Z,30.37
2022-07-31T16:39:24.227Z,29.93
2022-07-31T16:41:54.248Z,31.03
2022-07-31T16:44:21.665Z,31.02
2022-07-31T16:46:52.734Z,31.25
2022-07-31T16:49:28.255Z,31.63
2022-07-31T16:52:01.874Z,31.24
2022-07-31T16:54:28.690Z,32.04
2022-07-31T16:56:55.267Z,32.85
2022-07-31T16:59:21.781Z,33.50
2022-07-31T17:01:59.232Z,33.10
2022-07-31T17:04:27.428Z,32.53
2022-07-31T17:06:54.687Z,32.40
2022-07-31T17:09:21.924Z,33.88
2022-07-31T17:11:50.868Z,33.96
2022-07-31T17:14:19.497Z,33.60
2022-07-31T17:16:48.806Z,35.21
2022-07-31T17:19:42.301Z,35.57
2022-07-31T17:22:07.861Z,34.13
2022-07-31T17:24:37.139Z,34.59
2022-07-31T17:27:06.914Z,34.83
2022-07-31T17:29:33.839Z,36.26
2022-07-31T17:32:00.415Z,35.06
2022-07-31T17:34:28.010Z,36.38
2022-07-31T17:36:54.790Z,37.26
2022-07-31T17:39:21.316Z,36.67
2022-07-31T17:41:47.915Z,37.47
2022-07-31T17:44:14.838Z,37.22
2022-07-31T17:46:43.886Z,38.30
2022-07-31T17:49:19.513Z,38.54
2022-07-31T17:51:57.663Z,39.15
2022-07-31T17:54:27.772Z,40.09
2022-07-31T17:56:54.553Z,40.79
2022-07-31T17:59:21.160Z,39.10
2022-07-31T18:01:51.768Z,37.80
2022-07-31T18:04:19.308Z,37.39
2022-07-31T18:06:45.791Z,38.72
2022-07-31T18:09:12.278Z,39.54
2022-07-31T18:11:38.761Z,40.38
2022-07-31T18:14:05.252Z,40.73
2022-07-31T18:16:31.848Z,40.64
2022-07-31T18:18:58.393Z,40.77
2022-07-31T18:21:24.911Z,41.54
2022-07-31T18:23:51.427Z,42.44
2022-07-31T18:26:17.897Z,43.21
2022-07-31T18:28:44.429Z,44.15
2022-07-31T18:31:30.780Z,46.82
2022-07-31T18:33:57.444Z,48.59
2022-07-31T18:36:23.955Z,49.08
2022-07-31T18:38:52.025Z,50.56
2022-07-31T18:41:19.008Z,51.48
2022-07-31T18:43:45.572Z,52.77
2022-07-31T18:46:12.139Z,54.02
2022-07-31T18:48:38.672Z,56.93
2022-07-31T18:51:05.763Z,59.82
2022-07-31T18:53:33.512Z,63.55
2022-07-31T18:56:00.021Z,65.39
2022-07-31T18:58:26.811Z,66.69
2022-07-31T19:00:55.101Z,65.89
2022-07-31T19:03:23.353Z,65.63
2022-07-31T19:05:52.211Z,67.30
2022-07-31T19:08:19.430Z,64.28
2022-07-31T19:10:45.984Z,61.70
2022-07-31T19:13:17.242Z,61.29
2022-07-31T19:15:47.472Z,61.40
2022-07-31T19:18:14.249Z,61.88
2022-07-31T19:20:59.921Z,62.19
2022-07-31T19:23:31.577Z,61.93
2022-07-31T19:26:03.507Z,61.62
2022-07-31T19:28:34.897Z,62.75
2022-07-31T19:31:01.906Z,64.15
2022-07-31T19:33:28.586Z,64.78
2022-07-31T19:36:00.710Z,65.40
2022-07-31T19:38:29.228Z,64.38
2022-07-31T19:40:55.789Z,62.65
2022-07-31T19:43:22.317Z,62.94
2022-07-31T19:46:01.946Z,64.65
2022-07-31T19:48:36.624Z,64.79
2022-07-31T19:51:03.733Z,64.27
2022-07-31T19:53:30.335Z,64.99
2022-07-31T19:55:57.393Z,65.99
2022-07-31T19:58:23.890Z,66.81
2022-07-31T20:00:50.521Z,68.18
2022-07-31T20:03:17.174Z,70.28
2022-07-31T20:05:43.723Z,72.96
2022-07-31T20:08:10.450Z,74.51
2022-07-31T20:10:37.228Z,75.66
2022-07-31T20:13:04.148Z,76.79
2022-07-31T20:15:51.490Z,76.54
2022-07-31T20:18:25.197Z,77.72
2022-07-31T20:21:08.557Z,78.96
2022-07-31T20:23:38.532Z,80.39
2022-07-31T20:26:06.766Z,81.32
2022-07-31T20:28:33.313Z,82.26
2022-07-31T20:30:59.870Z,82.85
2022-07-31T20:33:26.383Z,84.54
2022-07-31T20:35:53.060Z,83.78
2022-07-31T20:38:23.668Z,83.18
2022-07-31T20:40:53.548Z,82.56
2022-07-31T20:43:27.026Z,82.36
2022-07-31T20:45:57.264Z,82.09
2022-07-31T20:48:27.029Z,83.62
2022-07-31T20:50:53.575Z,83.54
2022-07-31T20:53:21.553Z,85.52
2022-07-31T20:55:49.928Z,85.78
2022-07-31T20:58:21.680Z,86.66
2022-07-31T21:00:49.623Z,86.24
2022-07-31T21:03:17.537Z,84.86
2022-07-31T21:05:45.216Z,85.17
2022-07-31T21:08:13.295Z,85.20
2022-07-31T21:10:39.885Z,84.64
2022-07-31T21:13:06.406Z,85.23
2022-07-31T21:15:42.218Z,86.06
2022-07-31T21:18:15.522Z,86.46
2022-07-31T21:20:51.550Z,86.49
2022-07-31T21:23:24.669Z,87.36
2022-07-31T21:25:55.997Z,89.02
2022-07-31T21:28:23.647Z,89.85
2022-07-31T21:30:50.605Z,90.25
2022-07-31T21:33:18.282Z,88.78
2022-07-31T21:35:45.813Z,87.32
2022-07-31T21:38:15.035Z,86.98
2022-07-31T21:40:41.925Z,86.29
2022-07-31T21:43:09.633Z,86.20
2022-07-31T21:45:50.809Z,86.08
2022-07-31T21:48:23.720Z,86.07
2022-07-31T21:50:51.023Z,86.62
2022-07-31T21:53:17.516Z,86.77
2022-07-31T21:55:44.106Z,87.03
2022-07-31T21:58:10.742Z,87.66
2022-07-31T22:00:37.647Z,88.90
2022-07-31T22:03:04.630Z,90.65
2022-07-31T22:05:50.251Z,91.16
2022-07-31T22:08:16.993Z,91.19
2022-07-31T22:10:43.755Z,91.72
2022-07-31T22:13:10.285Z,92.00
2022-07-31T22:15:52.762Z,92.32
2022-07-31T22:18:26.409Z,92.32
2022-07-31T22:20:53.574Z,92.34
2022-07-31T22:23:20.392Z,93.76
2022-07-31T22:25:49.170Z,93.27
2022-07-31T22:28:18.889Z,93.23
2022-07-31T22:30:45.799Z,92.17
2022-07-31T22:33:12.656Z,91.85
2022-07-31T22:35:40.731Z,92.07
2022-07-31T22:38:08.528Z,92.46
2022-07-31T22:40:35.290Z,93.63
2022-07-31T22:43:02.646Z,94.70
2022-07-31T22:45:30.208Z,95.39
2022-07-31T22:47:57.558Z,97.01
2022-07-31T22:50:24.176Z,97.78
2022-07-31T22:52:50.780Z,98.54
2022-07-31T22:55:17.413Z,98.51
2022-07-31T22:57:44.906Z,98.66
2022-07-31T23:00:13.919Z,99.01
2022-07-31T23:02:42.151Z,99.94
2022-07-31T23:05:09.049Z,99.96
2022-07-31T23:07:35.572Z,99.58
2022-07-31T23:10:02.235Z,99.75
2022-07-31T23:12:29.541Z,100.00
2022-07-31T23:14:56.363Z,100.00
2022-07-31T23:17:23.558Z,100.00
2022-07-31T23:19:54.166Z,100.00
2022-07-31T23:22:30.883Z,100.00
2022-07-31T23:25:00.344Z,100.00
2022-07-31T23:27:26.886Z,100.00
2022-07-31T23:29:53.514Z,100.00
2022-07-31T23:32:20.013Z,100.00
2022-07-31T23:34:46.503Z,100.00
2022-07-31T23:37:13.070Z,100.00
2022-07-31T23:39:40.056Z,100.00
2022-07-31T23:42:25.376Z,100.00
2022-07-31T23:44:51.922Z,98.87
2022-07-31T23:47:19.358Z,99.32
2022-07-31T23:49:46.459Z,99.40
2022-07-31T23:52:13.076Z,100.00
2022-07-31T23:54:39.657Z,100.00
2022-07-31T23:57:06.179Z,100.00
2022-07-31T23:59:32.716Z,100.00
